sensor_id;sensor_type;location;lat;lon;timestamp;P1;durP1;ratioP1;P2;durP2;ratioP2
21705;SDS011;11014;53.076;18.208;2023-06-10T00:01:40;13.63;;;7.05;;
21705;SDS011;11014;53.076;18.208;2023-06-10T00:04:09;14.10;;;7.15;;
21705;SDS011;11014;53.076;18.208;2023-06-10T00:06:38;9.43;;;7.43;;
21705;SDS011;11014;53.076;18.208;2023-06-10T00:09:09;8.43;;;7.03;;
21705;SDS011;11014;53.076;18.208;2023-06-10T00:11:38;9.45;;;7.05;;
21705;SDS011;11014;53.076;18.208;2023-06-10T00:14:08;11.10;;;7.68;;
21705;SDS011;11014;53.076;18.208;2023-06-10T00:16:36;14.57;;;7.93;;
21705;SDS011;11014;53.076;18.208;2023-06-10T00:19:07;10.35;;;7.53;;
21705;SDS011;11014;53.076;18.208;2023-06-10T00:21:36;14.63;;;8.20;;
21705;SDS011;11014;53.076;18.208;2023-06-10T00:24:10;10.48;;;7.20;;
21705;SDS011;11014;53.076;18.208;2023-06-10T00:29:35;8.73;;;7.22;;
21705;SDS011;11014;53.076;18.208;2023-06-10T00:32:04;10.23;;;7.20;;
21705;SDS011;11014;53.076;18.208;2023-06-10T00:34:35;10.18;;;7.60;;
21705;SDS011;11014;53.076;18.208;2023-06-10T00:37:04;19.85;;;8.07;;
21705;SDS011;11014;53.076;18.208;2023-06-10T00:39:33;23.88;;;8.60;;
21705;SDS011;11014;53.076;18.208;2023-06-10T00:42:01;20.48;;;8.68;;
21705;SDS011;11014;53.076;18.208;2023-06-10T00:44:31;19.30;;;8.07;;
21705;SDS011;11014;53.076;18.208;2023-06-10T00:47:00;12.57;;;8.43;;
21705;SDS011;11014;53.076;18.208;2023-06-10T00:49:29;14.60;;;8.38;;
21705;SDS011;11014;53.076;18.208;2023-06-10T00:51:57;14.27;;;8.32;;
21705;SDS011;11014;53.076;18.208;2023-06-10T00:54:27;16.50;;;8.60;;
21705;SDS011;11014;53.076;18.208;2023-06-10T00:56:56;16.17;;;9.00;;
21705;SDS011;11014;53.076;18.208;2023-06-10T00:59:24;14.90;;;8.05;;
21705;SDS011;11014;53.076;18.208;2023-06-10T01:01:53;12.35;;;8.32;;
21705;SDS011;11014;53.076;18.208;2023-06-10T01:04:22;11.00;;;7.93;;
21705;SDS011;11014;53.076;18.208;2023-06-10T01:12:37;11.00;;;7.82;;
21705;SDS011;11014;53.076;18.208;2023-06-10T01:15:17;11.15;;;7.82;;
21705;SDS011;11014;53.076;18.208;2023-06-10T01:17:53;12.77;;;7.65;;
21705;SDS011;11014;53.076;18.208;2023-06-10T01:20:26;13.13;;;7.43;;
21705;SDS011;11014;53.076;18.208;2023-06-10T01:23:00;12.23;;;7.07;;
21705;SDS011;11014;53.076;18.208;2023-06-10T01:25:31;10.43;;;7.15;;
21705;SDS011;11014;53.076;18.208;2023-06-10T01:28:20;11.73;;;7.55;;
21705;SDS011;11014;53.076;18.208;2023-06-10T01:30:58;11.25;;;6.82;;
21705;SDS011;11014;53.076;18.208;2023-06-10T01:33:37;10.18;;;6.95;;
21705;SDS011;11014;53.076;18.208;2023-06-10T01:36:11;8.30;;;7.10;;
21705;SDS011;11014;53.076;18.208;2023-06-10T01:38:45;10.52;;;7.13;;
21705;SDS011;11014;53.076;18.208;2023-06-10T01:41:16;11.98;;;7.32;;
21705;SDS011;11014;53.076;18.208;2023-06-10T01:43:45;10.88;;;7.25;;
21705;SDS011;11014;53.076;18.208;2023-06-10T01:46:15;9.57;;;7.32;;
21705;SDS011;11014;53.076;18.208;2023-06-10T01:48:48;10.88;;;7.22;;
21705;SDS011;11014;53.076;18.208;2023-06-10T01:51:16;11.30;;;7.15;;
21705;SDS011;11014;53.076;18.208;2023-06-10T01:54:03;9.05;;;7.18;;
21705;SDS011;11014;53.076;18.208;2023-06-10T01:56:32;9.70;;;7.38;;
21705;SDS011;11014;53.076;18.208;2023-06-10T01:59:02;11.85;;;7.22;;
21705;SDS011;11014;53.076;18.208;2023-06-10T02:01:31;12.15;;;7.35;;
21705;SDS011;11014;53.076;18.208;2023-06-10T02:03:59;12.38;;;7.40;;
21705;SDS011;11014;53.076;18.208;2023-06-10T02:06:32;14.52;;;7.20;;
21705;SDS011;11014;53.076;18.208;2023-06-10T02:09:00;16.77;;;6.53;;
21705;SDS011;11014;53.076;18.208;2023-06-10T02:11:30;8.25;;;6.53;;
21705;SDS011;11014;53.076;18.208;2023-06-10T02:13:58;10.50;;;6.45;;
21705;SDS011;11014;53.076;18.208;2023-06-10T02:16:27;9.25;;;6.30;;
21705;SDS011;11014;53.076;18.208;2023-06-10T02:18:56;10.15;;;6.70;;
21705;SDS011;11014;53.076;18.208;2023-06-10T02:21:28;14.35;;;6.47;;
21705;SDS011;11014;53.076;18.208;2023-06-10T02:23:56;9.75;;;6.40;;
21705;SDS011;11014;53.076;18.208;2023-06-10T02:26:25;11.95;;;6.43;;
21705;SDS011;11014;53.076;18.208;2023-06-10T02:28:54;11.57;;;8.13;;
21705;SDS011;11014;53.076;18.208;2023-06-10T02:31:23;8.80;;;6.57;;
21705;SDS011;11014;53.076;18.208;2023-06-10T02:33:54;11.75;;;7.22;;
21705;SDS011;11014;53.076;18.208;2023-06-10T02:36:25;9.48;;;6.82;;
21705;SDS011;11014;53.076;18.208;2023-06-10T02:38:56;7.27;;;5.83;;
21705;SDS011;11014;53.076;18.208;2023-06-10T02:41:25;9.68;;;6.95;;
21705;SDS011;11014;53.076;18.208;2023-06-10T02:43:55;10.00;;;6.15;;
21705;SDS011;11014;53.076;18.208;2023-06-10T02:46:24;10.40;;;6.43;;
21705;SDS011;11014;53.076;18.208;2023-06-10T02:49:03;10.20;;;6.88;;
21705;SDS011;11014;53.076;18.208;2023-06-10T02:51:33;11.60;;;6.88;;
21705;SDS011;11014;53.076;18.208;2023-06-10T02:54:03;11.73;;;6.97;;
21705;SDS011;11014;53.076;18.208;2023-06-10T02:56:32;9.55;;;6.72;;
21705;SDS011;11014;53.076;18.208;2023-06-10T02:59:03;8.38;;;6.32;;
21705;SDS011;11014;53.076;18.208;2023-06-10T03:01:32;10.80;;;6.43;;
21705;SDS011;11014;53.076;18.208;2023-06-10T03:04:05;8.85;;;5.97;;
21705;SDS011;11014;53.076;18.208;2023-06-10T03:06:36;9.23;;;6.20;;
21705;SDS011;11014;53.076;18.208;2023-06-10T03:09:14;9.73;;;7.15;;
21705;SDS011;11014;53.076;18.208;2023-06-10T03:11:45;8.73;;;6.18;;
21705;SDS011;11014;53.076;18.208;2023-06-10T03:14:14;9.98;;;6.82;;
21705;SDS011;11014;53.076;18.208;2023-06-10T03:16:42;10.55;;;6.40;;
21705;SDS011;11014;53.076;18.208;2023-06-10T03:19:14;13.68;;;6.60;;
21705;SDS011;11014;53.076;18.208;2023-06-10T03:21:49;13.13;;;7.03;;
21705;SDS011;11014;53.076;18.208;2023-06-10T03:24:22;11.20;;;6.47;;
21705;SDS011;11014;53.076;18.208;2023-06-10T03:26:51;9.50;;;6.57;;
21705;SDS011;11014;53.076;18.208;2023-06-10T03:29:20;13.23;;;6.78;;
21705;SDS011;11014;53.076;18.208;2023-06-10T03:31:49;13.65;;;6.57;;
21705;SDS011;11014;53.076;18.208;2023-06-10T03:34:17;8.98;;;6.95;;
21705;SDS011;11014;53.076;18.208;2023-06-10T03:36:46;7.85;;;6.55;;
21705;SDS011;11014;53.076;18.208;2023-06-10T03:39:14;11.23;;;6.82;;
21705;SDS011;11014;53.076;18.208;2023-06-10T03:41:44;12.68;;;7.10;;
21705;SDS011;11014;53.076;18.208;2023-06-10T03:44:13;8.82;;;6.60;;
21705;SDS011;11014;53.076;18.208;2023-06-10T03:46:42;14.90;;;6.43;;
21705;SDS011;11014;53.076;18.208;2023-06-10T03:49:11;11.80;;;7.00;;
21705;SDS011;11014;53.076;18.208;2023-06-10T03:51:39;10.57;;;6.50;;
21705;SDS011;11014;53.076;18.208;2023-06-10T03:54:08;9.35;;;6.07;;
21705;SDS011;11014;53.076;18.208;2023-06-10T03:56:37;10.65;;;6.50;;
21705;SDS011;11014;53.076;18.208;2023-06-10T03:59:05;8.85;;;6.13;;
21705;SDS011;11014;53.076;18.208;2023-06-10T04:01:35;13.15;;;6.60;;
21705;SDS011;11014;53.076;18.208;2023-06-10T04:04:05;10.23;;;6.40;;
21705;SDS011;11014;53.076;18.208;2023-06-10T04:06:35;7.72;;;6.13;;
21705;SDS011;11014;53.076;18.208;2023-06-10T04:09:05;7.85;;;6.25;;
21705;SDS011;11014;53.076;18.208;2023-06-10T04:11:34;9.70;;;6.38;;
21705;SDS011;11014;53.076;18.208;2023-06-10T04:14:02;9.02;;;5.65;;
21705;SDS011;11014;53.076;18.208;2023-06-10T04:16:31;9.30;;;6.10;;
21705;SDS011;11014;53.076;18.208;2023-06-10T04:19:01;12.48;;;6.40;;
21705;SDS011;11014;53.076;18.208;2023-06-10T04:21:30;11.68;;;6.22;;
21705;SDS011;11014;53.076;18.208;2023-06-10T04:23:58;12.25;;;6.15;;
21705;SDS011;11014;53.076;18.208;2023-06-10T04:26:27;11.80;;;6.15;;
21705;SDS011;11014;53.076;18.208;2023-06-10T04:28:56;8.77;;;5.57;;
21705;SDS011;11014;53.076;18.208;2023-06-10T04:31:24;7.47;;;5.53;;
21705;SDS011;11014;53.076;18.208;2023-06-10T04:33:54;7.85;;;5.47;;
21705;SDS011;11014;53.076;18.208;2023-06-10T04:36:24;13.45;;;5.80;;
21705;SDS011;11014;53.076;18.208;2023-06-10T04:38:52;9.25;;;5.40;;
21705;SDS011;11014;53.076;18.208;2023-06-10T04:41:22;11.65;;;5.80;;
21705;SDS011;11014;53.076;18.208;2023-06-10T04:43:52;12.25;;;5.32;;
21705;SDS011;11014;53.076;18.208;2023-06-10T04:46:21;18.58;;;6.07;;
21705;SDS011;11014;53.076;18.208;2023-06-10T04:48:50;13.07;;;5.20;;
21705;SDS011;11014;53.076;18.208;2023-06-10T04:51:20;14.32;;;6.00;;
21705;SDS011;11014;53.076;18.208;2023-06-10T04:53:49;9.32;;;5.32;;
21705;SDS011;11014;53.076;18.208;2023-06-10T04:56:18;8.82;;;5.13;;
21705;SDS011;11014;53.076;18.208;2023-06-10T04:58:48;8.95;;;4.88;;
21705;SDS011;11014;53.076;18.208;2023-06-10T05:01:17;9.00;;;5.43;;
21705;SDS011;11014;53.076;18.208;2023-06-10T05:03:45;7.72;;;4.68;;
21705;SDS011;11014;53.076;18.208;2023-06-10T05:06:14;8.38;;;4.70;;
21705;SDS011;11014;53.076;18.208;2023-06-10T05:08:42;8.10;;;4.85;;
21705;SDS011;11014;53.076;18.208;2023-06-10T05:11:11;8.02;;;5.13;;
21705;SDS011;11014;53.076;18.208;2023-06-10T05:13:41;9.27;;;5.70;;
21705;SDS011;11014;53.076;18.208;2023-06-10T05:16:11;8.90;;;5.80;;
21705;SDS011;11014;53.076;18.208;2023-06-10T05:18:39;7.68;;;5.00;;
21705;SDS011;11014;53.076;18.208;2023-06-10T05:21:08;9.70;;;4.63;;
21705;SDS011;11014;53.076;18.208;2023-06-10T05:23:37;17.23;;;5.60;;
21705;SDS011;11014;53.076;18.208;2023-06-10T05:26:06;9.40;;;5.45;;
21705;SDS011;11014;53.076;18.208;2023-06-10T05:28:34;8.18;;;5.43;;
21705;SDS011;11014;53.076;18.208;2023-06-10T05:31:04;7.93;;;4.68;;
21705;SDS011;11014;53.076;18.208;2023-06-10T05:33:33;10.60;;;5.18;;
21705;SDS011;11014;53.076;18.208;2023-06-10T05:36:02;7.70;;;5.25;;
21705;SDS011;11014;53.076;18.208;2023-06-10T05:38:31;8.45;;;5.32;;
21705;SDS011;11014;53.076;18.208;2023-06-10T05:41:00;12.43;;;5.05;;
21705;SDS011;11014;53.076;18.208;2023-06-10T05:43:28;5.95;;;4.80;;
21705;SDS011;11014;53.076;18.208;2023-06-10T05:45:57;6.07;;;4.75;;
21705;SDS011;11014;53.076;18.208;2023-06-10T05:48:26;9.38;;;4.88;;
21705;SDS011;11014;53.076;18.208;2023-06-10T05:50:54;8.95;;;4.90;;
21705;SDS011;11014;53.076;18.208;2023-06-10T05:53:23;8.93;;;5.20;;
21705;SDS011;11014;53.076;18.208;2023-06-10T05:55:52;11.73;;;4.75;;
21705;SDS011;11014;53.076;18.208;2023-06-10T05:58:25;11.98;;;4.70;;
21705;SDS011;11014;53.076;18.208;2023-06-10T06:00:54;8.00;;;4.90;;
21705;SDS011;11014;53.076;18.208;2023-06-10T06:03:22;10.60;;;5.10;;
21705;SDS011;11014;53.076;18.208;2023-06-10T06:05:51;19.67;;;6.03;;
21705;SDS011;11014;53.076;18.208;2023-06-10T06:08:19;12.27;;;4.93;;
21705;SDS011;11014;53.076;18.208;2023-06-10T06:10:48;6.30;;;4.53;;
21705;SDS011;11014;53.076;18.208;2023-06-10T06:13:16;13.52;;;5.45;;
21705;SDS011;11014;53.076;18.208;2023-06-10T06:15:45;11.70;;;4.50;;
21705;SDS011;11014;53.076;18.208;2023-06-10T06:18:14;9.85;;;5.00;;
21705;SDS011;11014;53.076;18.208;2023-06-10T06:20:43;7.75;;;4.60;;
21705;SDS011;11014;53.076;18.208;2023-06-10T06:23:11;8.85;;;4.50;;
21705;SDS011;11014;53.076;18.208;2023-06-10T06:25:40;6.95;;;4.28;;
21705;SDS011;11014;53.076;18.208;2023-06-10T06:28:09;7.18;;;4.75;;
21705;SDS011;11014;53.076;18.208;2023-06-10T06:30:38;9.73;;;4.80;;
21705;SDS011;11014;53.076;18.208;2023-06-10T06:33:06;7.55;;;4.72;;
21705;SDS011;11014;53.076;18.208;2023-06-10T06:35:35;9.63;;;4.60;;
21705;SDS011;11014;53.076;18.208;2023-06-10T06:38:06;9.23;;;5.45;;
21705;SDS011;11014;53.076;18.208;2023-06-10T06:40:36;8.35;;;4.63;;
21705;SDS011;11014;53.076;18.208;2023-06-10T06:43:04;8.75;;;4.95;;
21705;SDS011;11014;53.076;18.208;2023-06-10T06:45:40;8.35;;;4.32;;
21705;SDS011;11014;53.076;18.208;2023-06-10T06:48:09;8.98;;;4.80;;
21705;SDS011;11014;53.076;18.208;2023-06-10T06:50:38;9.02;;;4.55;;
21705;SDS011;11014;53.076;18.208;2023-06-10T06:53:06;7.63;;;4.25;;
21705;SDS011;11014;53.076;18.208;2023-06-10T06:55:35;5.55;;;4.47;;
21705;SDS011;11014;53.076;18.208;2023-06-10T06:58:04;9.35;;;4.65;;
21705;SDS011;11014;53.076;18.208;2023-06-10T07:00:33;9.48;;;4.97;;
21705;SDS011;11014;53.076;18.208;2023-06-10T07:03:01;8.05;;;5.18;;
21705;SDS011;11014;53.076;18.208;2023-06-10T07:05:30;14.65;;;5.95;;
21705;SDS011;11014;53.076;18.208;2023-06-10T07:07:59;10.27;;;4.90;;
21705;SDS011;11014;53.076;18.208;2023-06-10T07:10:28;11.85;;;4.65;;
21705;SDS011;11014;53.076;18.208;2023-06-10T07:12:56;9.65;;;4.35;;
21705;SDS011;11014;53.076;18.208;2023-06-10T07:15:25;8.30;;;5.10;;
21705;SDS011;11014;53.076;18.208;2023-06-10T07:17:54;8.65;;;5.35;;
21705;SDS011;11014;53.076;18.208;2023-06-10T07:20:23;7.68;;;4.97;;
21705;SDS011;11014;53.076;18.208;2023-06-10T07:22:52;12.23;;;5.00;;
21705;SDS011;11014;53.076;18.208;2023-06-10T07:25:21;12.07;;;4.93;;
21705;SDS011;11014;53.076;18.208;2023-06-10T07:27:49;14.63;;;4.50;;
21705;SDS011;11014;53.076;18.208;2023-06-10T07:30:19;14.02;;;4.60;;
21705;SDS011;11014;53.076;18.208;2023-06-10T07:32:48;8.85;;;4.45;;
21705;SDS011;11014;53.076;18.208;2023-06-10T07:35:17;8.02;;;4.70;;
21705;SDS011;11014;53.076;18.208;2023-06-10T07:37:46;9.80;;;4.25;;
21705;SDS011;11014;53.076;18.208;2023-06-10T07:40:15;11.65;;;4.57;;
21705;SDS011;11014;53.076;18.208;2023-06-10T07:42:44;8.40;;;4.65;;
21705;SDS011;11014;53.076;18.208;2023-06-10T07:45:13;10.55;;;4.60;;
21705;SDS011;11014;53.076;18.208;2023-06-10T07:47:43;9.73;;;4.57;;
21705;SDS011;11014;53.076;18.208;2023-06-10T07:50:13;9.05;;;4.63;;
21705;SDS011;11014;53.076;18.208;2023-06-10T07:52:41;7.13;;;4.10;;
21705;SDS011;11014;53.076;18.208;2023-06-10T07:55:10;15.10;;;5.00;;
21705;SDS011;11014;53.076;18.208;2023-06-10T07:57:39;14.60;;;4.68;;
21705;SDS011;11014;53.076;18.208;2023-06-10T08:00:12;11.48;;;4.45;;
21705;SDS011;11014;53.076;18.208;2023-06-10T08:02:42;39.45;;;7.45;;
21705;SDS011;11014;53.076;18.208;2023-06-10T08:05:11;7.47;;;4.18;;
21705;SDS011;11014;53.076;18.208;2023-06-10T08:07:40;10.60;;;4.47;;
21705;SDS011;11014;53.076;18.208;2023-06-10T08:10:11;14.30;;;4.60;;
21705;SDS011;11014;53.076;18.208;2023-06-10T08:12:40;30.40;;;6.82;;
21705;SDS011;11014;53.076;18.208;2023-06-10T08:15:08;10.13;;;4.65;;
21705;SDS011;11014;53.076;18.208;2023-06-10T08:17:38;11.75;;;4.35;;
21705;SDS011;11014;53.076;18.208;2023-06-10T08:20:07;16.90;;;5.90;;
21705;SDS011;11014;53.076;18.208;2023-06-10T08:22:36;18.02;;;5.85;;
21705;SDS011;11014;53.076;18.208;2023-06-10T08:25:08;16.05;;;4.68;;
21705;SDS011;11014;53.076;18.208;2023-06-10T08:27:37;11.30;;;4.55;;
21705;SDS011;11014;53.076;18.208;2023-06-10T08:30:06;10.13;;;4.90;;
21705;SDS011;11014;53.076;18.208;2023-06-10T08:32:36;11.13;;;4.78;;
21705;SDS011;11014;53.076;18.208;2023-06-10T08:35:05;12.07;;;4.68;;
21705;SDS011;11014;53.076;18.208;2023-06-10T08:37:34;7.68;;;4.38;;
21705;SDS011;11014;53.076;18.208;2023-06-10T08:40:06;7.88;;;4.90;;
21705;SDS011;11014;53.076;18.208;2023-06-10T08:42:49;9.52;;;4.57;;
21705;SDS011;11014;53.076;18.208;2023-06-10T08:45:26;8.48;;;4.55;;
21705;SDS011;11014;53.076;18.208;2023-06-10T08:48:01;12.38;;;4.50;;
21705;SDS011;11014;53.076;18.208;2023-06-10T08:50:58;13.23;;;4.45;;
21705;SDS011;11014;53.076;18.208;2023-06-10T08:53:27;12.38;;;4.60;;
21705;SDS011;11014;53.076;18.208;2023-06-10T08:56:00;18.35;;;4.65;;
21705;SDS011;11014;53.076;18.208;2023-06-10T08:58:32;15.88;;;4.95;;
21705;SDS011;11014;53.076;18.208;2023-06-10T09:01:10;11.13;;;4.20;;
21705;SDS011;11014;53.076;18.208;2023-06-10T09:03:39;7.07;;;4.40;;
21705;SDS011;11014;53.076;18.208;2023-06-10T09:06:10;9.82;;;4.50;;
21705;SDS011;11014;53.076;18.208;2023-06-10T09:08:38;10.23;;;4.55;;
21705;SDS011;11014;53.076;18.208;2023-06-10T09:11:07;12.65;;;4.53;;
21705;SDS011;11014;53.076;18.208;2023-06-10T09:13:36;8.45;;;4.50;;
21705;SDS011;11014;53.076;18.208;2023-06-10T09:16:05;11.85;;;4.20;;
21705;SDS011;11014;53.076;18.208;2023-06-10T09:18:33;6.95;;;4.20;;
21705;SDS011;11014;53.076;18.208;2023-06-10T09:21:03;9.02;;;4.20;;
21705;SDS011;11014;53.076;18.208;2023-06-10T09:23:31;7.68;;;4.07;;
21705;SDS011;11014;53.076;18.208;2023-06-10T09:26:01;7.55;;;4.50;;
21705;SDS011;11014;53.076;18.208;2023-06-10T09:28:31;5.13;;;4.25;;
21705;SDS011;11014;53.076;18.208;2023-06-10T09:31:04;19.88;;;5.20;;
21705;SDS011;11014;53.076;18.208;2023-06-10T09:33:33;6.47;;;4.78;;
21705;SDS011;11014;53.076;18.208;2023-06-10T09:36:07;14.00;;;4.55;;
21705;SDS011;11014;53.076;18.208;2023-06-10T09:38:35;6.25;;;4.20;;
21705;SDS011;11014;53.076;18.208;2023-06-10T09:41:04;5.63;;;4.35;;
21705;SDS011;11014;53.076;18.208;2023-06-10T09:43:43;12.90;;;4.45;;
21705;SDS011;11014;53.076;18.208;2023-06-10T09:46:18;10.55;;;4.15;;
21705;SDS011;11014;53.076;18.208;2023-06-10T09:48:48;7.65;;;4.10;;
21705;SDS011;11014;53.076;18.208;2023-06-10T09:55:12;11.05;;;4.85;;
21705;SDS011;11014;53.076;18.208;2023-06-10T10:01:25;7.13;;;4.22;;
21705;SDS011;11014;53.076;18.208;2023-06-10T10:03:54;10.57;;;4.30;;
21705;SDS011;11014;53.076;18.208;2023-06-10T10:06:23;11.73;;;4.53;;
21705;SDS011;11014;53.076;18.208;2023-06-10T10:11:45;7.43;;;4.07;;
21705;SDS011;11014;53.076;18.208;2023-06-10T10:14:18;11.13;;;4.38;;
21705;SDS011;11014;53.076;18.208;2023-06-10T10:16:49;14.98;;;4.10;;
21705;SDS011;11014;53.076;18.208;2023-06-10T10:19:27;6.18;;;3.65;;
21705;SDS011;11014;53.076;18.208;2023-06-10T10:22:04;9.48;;;4.13;;
21705;SDS011;11014;53.076;18.208;2023-06-10T10:24:52;29.60;;;5.13;;
21705;SDS011;11014;53.076;18.208;2023-06-10T10:30:35;16.05;;;4.70;;
21705;SDS011;11014;53.076;18.208;2023-06-10T10:36:05;13.75;;;4.68;;
21705;SDS011;11014;53.076;18.208;2023-06-10T10:41:31;11.15;;;3.95;;
21705;SDS011;11014;53.076;18.208;2023-06-10T10:44:02;13.48;;;4.50;;
21705;SDS011;11014;53.076;18.208;2023-06-10T10:46:42;10.30;;;3.90;;
21705;SDS011;11014;53.076;18.208;2023-06-10T10:49:13;4.90;;;4.03;;
21705;SDS011;11014;53.076;18.208;2023-06-10T10:51:58;10.32;;;4.10;;
21705;SDS011;11014;53.076;18.208;2023-06-10T10:54:29;11.52;;;4.78;;
21705;SDS011;11014;53.076;18.208;2023-06-10T10:57:11;11.63;;;4.20;;
21705;SDS011;11014;53.076;18.208;2023-06-10T10:59:43;51.15;;;6.55;;
21705;SDS011;11014;53.076;18.208;2023-06-10T11:05:16;15.93;;;3.78;;
21705;SDS011;11014;53.076;18.208;2023-06-10T11:07:52;21.75;;;4.40;;
21705;SDS011;11014;53.076;18.208;2023-06-10T11:10:30;8.40;;;3.50;;
21705;SDS011;11014;53.076;18.208;2023-06-10T11:13:12;16.63;;;4.25;;
21705;SDS011;11014;53.076;18.208;2023-06-10T11:19:10;12.57;;;4.57;;
21705;SDS011;11014;53.076;18.208;2023-06-10T11:22:00;7.63;;;3.72;;
21705;SDS011;11014;53.076;18.208;2023-06-10T11:24:35;11.45;;;3.65;;
21705;SDS011;11014;53.076;18.208;2023-06-10T11:27:18;5.10;;;3.72;;
21705;SDS011;11014;53.076;18.208;2023-06-10T11:32:53;11.15;;;4.10;;
21705;SDS011;11014;53.076;18.208;2023-06-10T11:35:27;6.13;;;3.45;;
21705;SDS011;11014;53.076;18.208;2023-06-10T11:37:59;36.83;;;5.18;;
21705;SDS011;11014;53.076;18.208;2023-06-10T11:40:29;14.43;;;4.00;;
21705;SDS011;11014;53.076;18.208;2023-06-10T11:43:01;11.80;;;3.63;;
21705;SDS011;11014;53.076;18.208;2023-06-10T11:45:32;14.13;;;4.07;;
21705;SDS011;11014;53.076;18.208;2023-06-10T11:48:01;9.38;;;3.50;;
21705;SDS011;11014;53.076;18.208;2023-06-10T11:50:33;11.57;;;4.10;;
21705;SDS011;11014;53.076;18.208;2023-06-10T11:53:02;6.55;;;3.33;;
21705;SDS011;11014;53.076;18.208;2023-06-10T11:55:47;5.55;;;3.42;;
21705;SDS011;11014;53.076;18.208;2023-06-10T11:58:21;7.10;;;3.30;;
21705;SDS011;11014;53.076;18.208;2023-06-10T12:00:52;7.45;;;3.38;;
21705;SDS011;11014;53.076;18.208;2023-06-10T12:03:22;20.15;;;4.35;;
21705;SDS011;11014;53.076;18.208;2023-06-10T12:05:55;11.98;;;3.60;;
21705;SDS011;11014;53.076;18.208;2023-06-10T12:08:26;16.40;;;4.25;;
21705;SDS011;11014;53.076;18.208;2023-06-10T12:10:56;9.43;;;3.78;;
21705;SDS011;11014;53.076;18.208;2023-06-10T12:13:27;10.30;;;3.60;;
21705;SDS011;11014;53.076;18.208;2023-06-10T12:16:05;6.07;;;3.25;;
21705;SDS011;11014;53.076;18.208;2023-06-10T12:18:42;4.40;;;3.13;;
21705;SDS011;11014;53.076;18.208;2023-06-10T12:21:15;8.10;;;3.60;;
21705;SDS011;11014;53.076;18.208;2023-06-10T12:26:36;4.78;;;2.83;;
21705;SDS011;11014;53.076;18.208;2023-06-10T12:31:55;20.15;;;4.05;;
21705;SDS011;11014;53.076;18.208;2023-06-10T12:34:30;7.10;;;3.33;;
21705;SDS011;11014;53.076;18.208;2023-06-10T12:37:04;7.40;;;3.67;;
21705;SDS011;11014;53.076;18.208;2023-06-10T12:39:34;10.32;;;3.35;;
21705;SDS011;11014;53.076;18.208;2023-06-10T12:42:03;6.72;;;3.10;;
21705;SDS011;11014;53.076;18.208;2023-06-10T12:44:34;8.50;;;3.67;;
21705;SDS011;11014;53.076;18.208;2023-06-10T12:47:07;7.40;;;3.67;;
21705;SDS011;11014;53.076;18.208;2023-06-10T12:49:41;9.25;;;3.95;;
21705;SDS011;11014;53.076;18.208;2023-06-10T12:52:09;8.80;;;2.90;;
21705;SDS011;11014;53.076;18.208;2023-06-10T12:54:38;9.80;;;3.92;;
21705;SDS011;11014;53.076;18.208;2023-06-10T12:57:06;8.68;;;3.25;;
21705;SDS011;11014;53.076;18.208;2023-06-10T12:59:35;3.97;;;2.72;;
21705;SDS011;11014;53.076;18.208;2023-06-10T13:02:07;4.35;;;2.83;;
21705;SDS011;11014;53.076;18.208;2023-06-10T13:04:36;9.25;;;3.30;;
21705;SDS011;11014;53.076;18.208;2023-06-10T13:07:05;6.05;;;3.13;;
21705;SDS011;11014;53.076;18.208;2023-06-10T13:09:34;3.50;;;3.00;;
21705;SDS011;11014;53.076;18.208;2023-06-10T13:12:03;6.25;;;3.22;;
21705;SDS011;11014;53.076;18.208;2023-06-10T13:14:33;6.95;;;3.40;;
21705;SDS011;11014;53.076;18.208;2023-06-10T13:17:02;6.82;;;3.08;;
21705;SDS011;11014;53.076;18.208;2023-06-10T13:19:31;11.48;;;3.45;;
21705;SDS011;11014;53.076;18.208;2023-06-10T13:22:00;16.88;;;3.70;;
21705;SDS011;11014;53.076;18.208;2023-06-10T13:24:30;9.15;;;3.22;;
21705;SDS011;11014;53.076;18.208;2023-06-10T13:26:58;8.50;;;3.65;;
21705;SDS011;11014;53.076;18.208;2023-06-10T13:29:27;13.20;;;3.45;;
21705;SDS011;11014;53.076;18.208;2023-06-10T13:31:56;11.85;;;3.50;;
21705;SDS011;11014;53.076;18.208;2023-06-10T13:34:24;7.60;;;3.33;;
21705;SDS011;11014;53.076;18.208;2023-06-10T13:36:53;15.32;;;4.18;;
21705;SDS011;11014;53.076;18.208;2023-06-10T13:39:22;15.18;;;4.07;;
21705;SDS011;11014;53.076;18.208;2023-06-10T13:41:50;3.30;;;3.00;;
21705;SDS011;11014;53.076;18.208;2023-06-10T13:44:20;9.60;;;3.13;;
21705;SDS011;11014;53.076;18.208;2023-06-10T13:46:48;9.30;;;3.33;;
21705;SDS011;11014;53.076;18.208;2023-06-10T13:49:17;9.10;;;3.47;;
21705;SDS011;11014;53.076;18.208;2023-06-10T13:51:46;11.55;;;3.33;;
21705;SDS011;11014;53.076;18.208;2023-06-10T13:54:17;6.50;;;3.53;;
21705;SDS011;11014;53.076;18.208;2023-06-10T13:56:46;9.23;;;3.30;;
21705;SDS011;11014;53.076;18.208;2023-06-10T13:59:15;26.73;;;4.95;;
21705;SDS011;11014;53.076;18.208;2023-06-10T14:01:43;11.23;;;3.90;;
21705;SDS011;11014;53.076;18.208;2023-06-10T14:04:12;24.10;;;4.20;;
21705;SDS011;11014;53.076;18.208;2023-06-10T14:06:40;8.65;;;3.30;;
21705;SDS011;11014;53.076;18.208;2023-06-10T14:09:09;6.90;;;3.00;;
21705;SDS011;11014;53.076;18.208;2023-06-10T14:11:38;9.50;;;3.88;;
21705;SDS011;11014;53.076;18.208;2023-06-10T14:14:07;7.72;;;2.88;;
21705;SDS011;11014;53.076;18.208;2023-06-10T14:16:35;6.50;;;2.90;;
21705;SDS011;11014;53.076;18.208;2023-06-10T14:19:04;4.70;;;2.92;;
21705;SDS011;11014;53.076;18.208;2023-06-10T14:21:32;22.45;;;4.70;;
21705;SDS011;11014;53.076;18.208;2023-06-10T14:24:01;6.05;;;3.03;;
21705;SDS011;11014;53.076;18.208;2023-06-10T14:26:50;10.13;;;2.80;;
21705;SDS011;11014;53.076;18.208;2023-06-10T14:29:19;5.95;;;2.80;;
21705;SDS011;11014;53.076;18.208;2023-06-10T14:31:48;6.22;;;3.03;;
21705;SDS011;11014;53.076;18.208;2023-06-10T14:34:17;6.82;;;3.28;;
21705;SDS011;11014;53.076;18.208;2023-06-10T14:36:46;7.32;;;3.13;;
21705;SDS011;11014;53.076;18.208;2023-06-10T14:39:15;4.80;;;3.28;;
21705;SDS011;11014;53.076;18.208;2023-06-10T14:41:44;8.23;;;3.42;;
21705;SDS011;11014;53.076;18.208;2023-06-10T14:44:12;7.65;;;3.35;;
21705;SDS011;11014;53.076;18.208;2023-06-10T14:46:41;6.18;;;3.40;;
21705;SDS011;11014;53.076;18.208;2023-06-10T14:49:10;7.22;;;3.28;;
21705;SDS011;11014;53.076;18.208;2023-06-10T14:51:40;5.88;;;2.67;;
21705;SDS011;11014;53.076;18.208;2023-06-10T14:54:09;8.38;;;3.30;;
21705;SDS011;11014;53.076;18.208;2023-06-10T14:56:37;11.45;;;3.35;;
21705;SDS011;11014;53.076;18.208;2023-06-10T14:59:06;6.25;;;3.25;;
21705;SDS011;11014;53.076;18.208;2023-06-10T15:01:35;9.18;;;3.20;;
21705;SDS011;11014;53.076;18.208;2023-06-10T15:04:03;5.47;;;2.85;;
21705;SDS011;11014;53.076;18.208;2023-06-10T15:06:32;8.40;;;3.83;;
21705;SDS011;11014;53.076;18.208;2023-06-10T15:09:01;11.68;;;4.10;;
21705;SDS011;11014;53.076;18.208;2023-06-10T15:11:29;8.70;;;3.30;;
21705;SDS011;11014;53.076;18.208;2023-06-10T15:13:58;4.05;;;2.60;;
21705;SDS011;11014;53.076;18.208;2023-06-10T15:16:27;8.10;;;2.90;;
21705;SDS011;11014;53.076;18.208;2023-06-10T15:19:34;8.18;;;3.13;;
21705;SDS011;11014;53.076;18.208;2023-06-10T15:22:03;6.03;;;2.65;;
21705;SDS011;11014;53.076;18.208;2023-06-10T15:24:32;4.18;;;2.60;;
21705;SDS011;11014;53.076;18.208;2023-06-10T15:27:00;9.55;;;2.97;;
21705;SDS011;11014;53.076;18.208;2023-06-10T15:29:29;11.68;;;2.78;;
21705;SDS011;11014;53.076;18.208;2023-06-10T15:31:57;31.70;;;4.32;;